Portada
METAR-TAF:

METAR-TAF

Aeroports :

North Central State Airport

Pawtucket, Rhode Island, Estats Units d'Amèrica

latitud: 41-55N, longitud: 071-30W, altitud: 134 m

Observació

L'informe es va fer fa 46 minuts, a les 21:56 UTC
Vent 10 kt del Est/Sud-Est
Temperatura 7°C
Humitat 66%
Pressió 1007 hPa
Visibilitat: 16.1 km
Escasses núvols a una alçada de 4600 ft
Cel cobert a una alçada de 5500 ft
pluja

METAR: KSFZ 152156Z AUTO 11010KT 10SM -RA FEW046 OVC055 07/01 A2974 RMK AO2 SLP078 P0000 T00670006 $

Hora: 18:42 (22:42 UTC)


TAF: manca

Observacions i pronòstics meteorològics de més de 4000 aeroports (METAR i TAF).

Les estacions disponibles són els punts grocs i vermells al mapa.

Posi el ratolí al punt desitjat per veure el nom de l'estació.

Feu clic per veure les observacions i els pronòstics meteorològics.

Per canviar el mapa: feu clic els botons verds amb una creu de color negre per apropar; al botó verd amb un guió per allunyar la imatge; o en les fletxes verdes per a mapes adjacents.


METAR-TAF: